Time;durP1;ratioP1;P1;durP2;ratioP2;P2;SDS_P1;SDS_P2;PMS_P1;PMS_P2;Temp;Humidity;BMP_temperature;BMP_pressure;BME280_temperature;BME280_humidity;BME280_pressure;Samples;Min_cycle;Max_cycle;Signal;HPM_P1;HPM_P2
2023/09/28 00:01:45;;;;;;;;;;;;;;;;;;6154486;23;19905;-90
2023/09/28 00:04:11;;;;;;;;;;;;;;;;;;6154030;23;19931;-89
2023/09/28 00:06:37;;;;;;;;;;;;;;;;;;6158351;22;19909;-89
2023/09/28 00:09:03;;;;;;;;;;;;;;;;;;6154100;23;19959;-90
2023/09/28 00:11:29;;;;;;;;;;;;;;;;;;6154174;23;19952;-89
2023/09/28 00:13:55;;;;;;;;;;;;;;;;;;6151914;23;19938;-90
2023/09/28 00:16:21;;;;;;;;;;;;;;;;;;6152271;23;19908;-90
2023/09/28 00:18:47;;;;;;;;;;;;;;;;;;6153730;23;20291;-89
2023/09/28 00:21:13;;;;;;;;;;;;;;;;;;6152653;23;19997;-89
2023/09/28 00:23:39;;;;;;;;;;;;;;;;;;6152878;23;19908;-89
2023/09/28 00:26:07;;;;;;;;;;;;;;;;;;6154153;23;19908;-89
2023/09/28 00:28:33;;;;;;;;;;;;;;;;;;6154243;23;20377;-89
2023/09/28 00:31:01;;;;;;;;;;;;;;;;;;6153922;23;19987;-90
2023/09/28 00:33:27;;;;;;;;;;;;;;;;;;6154078;23;20243;-90
2023/09/28 00:35:53;;;;;;;;;;;;;;;;;;6154239;23;19908;-90
2023/09/28 00:38:19;;;;;;;;;;;;;;;;;;6153643;23;19911;-89
2023/09/28 00:40:45;;;;;;;;;;;;;;;;;;6154897;23;20253;-89
2023/09/28 00:43:14;;;;;;;;;;;;;;;;;;6153789;23;19979;-90
2023/09/28 00:45:40;;;;;;;;;;;;;;;;;;6154737;23;19908;-90
2023/09/28 00:48:14;;;;;;;;;;;;;;;;;;6154298;23;20050;-90
2023/09/28 00:50:40;;;;;;;;;;;;;;;;;;6152685;23;20608;-90
2023/09/28 00:53:07;;;;;;;;;;;;;;;;;;6153810;23;19908;-89
2023/09/28 00:55:33;;;;;;;;;;;;;;;;;;6152326;23;20193;-89
2023/09/28 00:58:00;;;;;;;;;;;;;;;;;;6155027;23;20242;-90
2023/09/28 01:00:27;;;;;;;;;;;;;;;;;;6153133;23;20365;-90
2023/09/28 01:02:54;;;;;;;;;;;;;;;;;;6154523;23;19915;-90
2023/09/28 01:05:19;;;;;;;;;;;;;;;;;;6153670;23;19911;-90
2023/09/28 01:07:45;;;;;;;;;;;;;;;;;;6155155;23;20297;-90
2023/09/28 01:10:20;;;;;;;;;;;;;;;;;;6154560;23;19911;-90
2023/09/28 01:12:47;;;;;;;;;;;;;;;;;;6153240;23;20475;-90
2023/09/28 01:15:13;;;;;;;;;;;;;;;;;;6153521;23;20008;-91
2023/09/28 01:17:39;;;;;;;;;;;;;;;;;;6154402;23;19908;-90
2023/09/28 01:22:43;;;;;;;;;;;;;;;;;;6178912;23;19915;-90
2023/09/28 01:25:09;;;;;;;;;;;;;;;;;;6153582;23;19904;-90
2023/09/28 01:27:36;;;;;;;;;;;;;;;;;;6153729;23;19963;-90
2023/09/28 01:30:03;;;;;;;;;;;;;;;;;;6152866;23;20311;-90
2023/09/28 01:32:29;;;;;;;;;;;;;;;;;;6180522;23;20374;-90
2023/09/28 01:34:55;;;;;;;;;;;;;;;;;;6152914;23;19915;-90
2023/09/28 01:37:21;;;;;;;;;;;;;;;;;;6153816;23;19909;-90
2023/09/28 01:39:47;;;;;;;;;;;;;;;;;;6153047;23;20237;-90
2023/09/28 01:42:13;;;;;;;;;;;;;;;;;;6180791;23;19904;-90
2023/09/28 01:44:39;;;;;;;;;;;;;;;;;;6153157;23;19904;-89
2023/09/28 01:47:05;;;;;;;;;;;;;;;;;;6154532;23;19905;-90
2023/09/28 01:49:37;;;;;;;;;;;;;;;;;;6152851;23;19952;-90
2023/09/28 01:52:03;;;;;;;;;;;;;;;;;;6153461;23;19909;-90
2023/09/28 01:54:32;;;;;;;;;;;;;;;;;;6152237;23;19904;-90
2023/09/28 01:56:57;;;;;;;;;;;;;;;;;;6179105;23;19979;-90
2023/09/28 01:59:23;;;;;;;;;;;;;;;;;;6154231;23;19946;-90
2023/09/28 02:01:50;;;;;;;;;;;;;;;;;;6178807;23;20378;-90
2023/09/28 02:04:16;;;;;;;;;;;;;;;;;;6178428;23;19909;-90
2023/09/28 02:06:42;;;;;;;;;;;;;;;;;;6155547;22;20394;-90
2023/09/28 02:09:10;;;;;;;;;;;;;;;;;;6123438;23;19916;-89
2023/09/28 02:11:43;;;;;;;;;;;;;;;;;;6122847;23;20040;-89
2023/09/28 02:14:09;;;;;;;;;;;;;;;;;;6121223;23;19908;-91
2023/09/28 02:16:35;;;;;;;;;;;;;;;;;;6123459;23;19994;-90
2023/09/28 02:19:01;;;;;;;;;;;;;;;;;;6122978;23;19959;-89
2023/09/28 02:21:27;;;;;;;;;;;;;;;;;;6124558;23;20327;-89
2023/09/28 02:23:53;;;;;;;;;;;;;;;;;;6124477;23;20464;-90
2023/09/28 02:26:19;;;;;;;;;;;;;;;;;;6125415;23;19909;-90
2023/09/28 02:28:45;;;;;;;;;;;;;;;;;;6124432;23;20492;-89
2023/09/28 02:31:11;;;;;;;;;;;;;;;;;;6125418;23;19905;-89
2023/09/28 02:33:37;;;;;;;;;;;;;;;;;;6124645;23;19984;-90
2023/09/28 02:36:03;;;;;;;;;;;;;;;;;;6120351;23;20340;-89
2023/09/28 02:38:29;;;;;;;;;;;;;;;;;;6125608;23;19939;-89
2023/09/28 02:40:55;;;;;;;;;;;;;;;;;;6125101;23;20353;-89
2023/09/28 02:43:21;;;;;;;;;;;;;;;;;;6125284;23;19908;-90
2023/09/28 02:45:47;;;;;;;;;;;;;;;;;;6125036;23;19919;-89
2023/09/28 02:48:13;;;;;;;;;;;;;;;;;;6124345;23;19908;-90
2023/09/28 02:50:39;;;;;;;;;;;;;;;;;;6123902;23;19955;-89
2023/09/28 02:53:05;;;;;;;;;;;;;;;;;;6125366;23;20267;-90
2023/09/28 02:55:32;;;;;;;;;;;;;;;;;;6124598;23;19916;-89
2023/09/28 02:57:58;;;;;;;;;;;;;;;;;;6125873;23;19963;-90
2023/09/28 03:00:25;;;;;;;;;;;;;;;;;;6122285;23;19919;-90
2023/09/28 03:02:58;;;;;;;;;;;;;;;;;;6124917;23;19905;-89
2023/09/28 03:05:24;;;;;;;;;;;;;;;;;;6124089;23;19964;-90
2023/09/28 03:07:50;;;;;;;;;;;;;;;;;;6140405;23;19916;-89
2023/09/28 03:10:17;;;;;;;;;;;;;;;;;;6154649;23;20330;-90
2023/09/28 03:12:44;;;;;;;;;;;;;;;;;;6153198;23;19994;-89
2023/09/28 03:15:10;;;;;;;;;;;;;;;;;;6154420;23;20390;-90
2023/09/28 03:17:36;;;;;;;;;;;;;;;;;;6153431;23;19915;-89
2023/09/28 03:20:36;;;;;;;;;;;;;;;;;;6153251;23;19914;-90
2023/09/28 03:22:55;;;;;;;;;;;;;;;;;;6176899;23;20278;-90
2023/09/28 03:25:22;;;;;;;;;;;;;;;;;;6153654;23;19911;-89
2023/09/28 03:27:48;;;;;;;;;;;;;;;;;;6153767;23;19955;-89
2023/09/28 03:30:14;;;;;;;;;;;;;;;;;;6154277;23;19912;-89
2023/09/28 03:32:40;;;;;;;;;;;;;;;;;;6154697;23;19982;-90
2023/09/28 03:35:08;;;;;;;;;;;;;;;;;;6153508;23;19915;-89
2023/09/28 03:37:33;;;;;;;;;;;;;;;;;;6153994;23;19937;-91
2023/09/28 03:40:00;;;;;;;;;;;;;;;;;;6154063;23;19905;-89
2023/09/28 03:42:26;;;;;;;;;;;;;;;;;;6153168;23;19904;-90
2023/09/28 03:44:52;;;;;;;;;;;;;;;;;;6154168;23;19912;-89
2023/09/28 03:47:19;;;;;;;;;;;;;;;;;;6154646;23;19921;-89
2023/09/28 03:49:45;;;;;;;;;;;;;;;;;;6152920;23;19909;-90
2023/09/28 03:52:11;;;;;;;;;;;;;;;;;;6154002;23;19908;-89
2023/09/28 03:54:43;;;;;;;;;;;;;;;;;;6152101;23;19976;-90
2023/09/28 03:57:09;;;;;;;;;;;;;;;;;;6153706;23;20003;-89
2023/09/28 03:59:35;;;;;;;;;;;;;;;;;;6152442;23;20335;-89
2023/09/28 04:02:01;;;;;;;;;;;;;;;;;;6153885;23;20342;-89
2023/09/28 04:04:27;;;;;;;;;;;;;;;;;;6153586;23;19908;-89
2023/09/28 04:06:53;;;;;;;;;;;;;;;;;;6152911;23;19991;-89
2023/09/28 04:09:19;;;;;;;;;;;;;;;;;;6157865;23;19912;-89
2023/09/28 04:11:45;;;;;;;;;;;;;;;;;;6158656;23;19924;-93
2023/09/28 04:14:11;;;;;;;;;;;;;;;;;;6126542;23;19948;-93
2023/09/28 04:16:37;;;;;;;;;;;;;;;;;;6128574;23;19999;-94
2023/09/28 04:19:03;;;;;;;;;;;;;;;;;;6127473;23;19936;-94
2023/09/28 04:21:29;;;;;;;;;;;;;;;;;;6128084;23;19909;-94
2023/09/28 04:23:55;;;;;;;;;;;;;;;;;;6129034;23;19904;-93
2023/09/28 04:26:21;;;;;;;;;;;;;;;;;;6126643;23;19936;-94
2023/09/28 04:28:47;;;;;;;;;;;;;;;;;;6128258;23;19919;-92
2023/09/28 04:31:13;;;;;;;;;;;;;;;;;;6126818;23;19952;-92
2023/09/28 04:33:39;;;;;;;;;;;;;;;;;;6128202;23;19909;-92
2023/09/28 04:36:07;;;;;;;;;;;;;;;;;;6126375;23;19908;-93
2023/09/28 04:38:33;;;;;;;;;;;;;;;;;;6127801;23;20323;-93
2023/09/28 04:40:59;;;;;;;;;;;;;;;;;;6127022;23;19912;-92
2023/09/28 04:43:25;;;;;;;;;;;;;;;;;;6128390;23;19913;-92
2023/09/28 04:45:51;;;;;;;;;;;;;;;;;;6127699;23;20319;-93
2023/09/28 04:48:17;;;;;;;;;;;;;;;;;;6128051;23;19919;-92
2023/09/28 04:50:44;;;;;;;;;;;;;;;;;;6126870;23;20298;-92
2023/09/28 04:53:10;;;;;;;;;;;;;;;;;;6127673;23;19924;-92
2023/09/28 04:55:37;;;;;;;;;;;;;;;;;;6125971;23;19908;-92
2023/09/28 04:58:03;;;;;;;;;;;;;;;;;;6127215;23;19908;-92
2023/09/28 05:00:29;;;;;;;;;;;;;;;;;;6126484;23;19932;-92
2023/09/28 05:02:54;;;;;;;;;;;;;;;;;;6127604;23;20354;-93
2023/09/28 05:05:20;;;;;;;;;;;;;;;;;;6125140;23;20038;-92
2023/09/28 05:07:46;;;;;;;;;;;;;;;;;;6127092;23;19920;-93
2023/09/28 05:10:12;;;;;;;;;;;;;;;;;;6126414;23;19930;-93
2023/09/28 05:12:38;;;;;;;;;;;;;;;;;;6138201;23;19921;-92
2023/09/28 05:15:04;;;;;;;;;;;;;;;;;;6150573;23;19943;-92
2023/09/28 05:17:31;;;;;;;;;;;;;;;;;;6152009;23;20366;-93
2023/09/28 05:19:58;;;;;;;;;;;;;;;;;;6151786;23;19936;-92
2023/09/28 05:22:24;;;;;;;;;;;;;;;;;;6152604;23;19908;-92
2023/09/28 05:24:51;;;;;;;;;;;;;;;;;;6151553;23;19916;-93
2023/09/28 05:27:17;;;;;;;;;;;;;;;;;;6152050;23;19943;-92
2023/09/28 05:29:43;;;;;;;;;;;;;;;;;;6151478;23;20007;-92
2023/09/28 05:32:10;;;;;;;;;;;;;;;;;;6151814;23;20327;-92
2023/09/28 05:34:36;;;;;;;;;;;;;;;;;;6150764;23;19909;-92
2023/09/28 05:37:03;;;;;;;;;;;;;;;;;;6151424;23;19904;-93
2023/09/28 05:39:29;;;;;;;;;;;;;;;;;;6153266;23;19932;-93
2023/09/28 05:41:56;;;;;;;;;;;;;;;;;;6154837;23;19911;-94
2023/09/28 05:44:22;;;;;;;;;;;;;;;;;;6153378;23;19963;-94
2023/09/28 05:46:48;;;;;;;;;;;;;;;;;;6153686;23;19905;-94
2023/09/28 05:49:14;;;;;;;;;;;;;;;;;;6151727;23;19916;-93
2023/09/28 05:51:40;;;;;;;;;;;;;;;;;;6151271;23;20315;-94
2023/09/28 05:54:06;;;;;;;;;;;;;;;;;;6153541;23;19936;-94
2023/09/28 05:56:32;;;;;;;;;;;;;;;;;;6154355;23;19940;-94
2023/09/28 05:58:59;;;;;;;;;;;;;;;;;;6155136;23;19982;-93
2023/09/28 06:01:25;;;;;;;;;;;;;;;;;;6154163;23;19909;-94
2023/09/28 06:03:51;;;;;;;;;;;;;;;;;;6155570;23;19915;-94
2023/09/28 06:06:17;;;;;;;;;;;;;;;;;;6153868;23;19909;-94
2023/09/28 06:08:43;;;;;;;;;;;;;;;;;;6155075;23;19932;-94
2023/09/28 06:11:09;;;;;;;;;;;;;;;;;;6155264;23;19959;-94
2023/09/28 06:13:35;;;;;;;;;;;;;;;;;;6154583;23;19920;-93
2023/09/28 06:16:01;;;;;;;;;;;;;;;;;;6154574;23;19920;-94
2023/09/28 06:18:27;;;;;;;;;;;;;;;;;;6154916;23;19916;-94
2023/09/28 06:20:54;;;;;;;;;;;;;;;;;;6154958;23;19960;-94
2023/09/28 06:23:20;;;;;;;;;;;;;;;;;;6154977;23;19928;-93
2023/09/28 06:25:46;;;;;;;;;;;;;;;;;;6155249;23;19905;-94
2023/09/28 06:28:12;;;;;;;;;;;;;;;;;;6154783;23;19939;-93
2023/09/28 06:30:38;;;;;;;;;;;;;;;;;;6155703;23;19909;-94
2023/09/28 06:33:04;;;;;;;;;;;;;;;;;;6154679;23;20344;-93
2023/09/28 06:35:31;;;;;;;;;;;;;;;;;;6156101;23;19975;-93
2023/09/28 06:37:58;;;;;;;;;;;;;;;;;;6154433;23;20011;-93
2023/09/28 06:40:24;;;;;;;;;;;;;;;;;;6154710;23;19952;-93
2023/09/28 06:42:50;;;;;;;;;;;;;;;;;;6153554;23;19963;-93
2023/09/28 06:45:16;;;;;;;;;;;;;;;;;;6155165;23;20188;-93
2023/09/28 06:47:42;;;;;;;;;;;;;;;;;;6154531;23;19967;-93
2023/09/28 06:50:09;;;;;;;;;;;;;;;;;;6153884;23;20167;-92
2023/09/28 06:52:35;;;;;;;;;;;;;;;;;;6154325;23;19905;-93
2023/09/28 06:55:03;;;;;;;;;;;;;;;;;;6154155;23;19912;-94
2023/09/28 06:57:29;;;;;;;;;;;;;;;;;;6153756;23;19908;-93
2023/09/28 06:59:55;;;;;;;;;;;;;;;;;;6155725;23;19920;-92
2023/09/28 07:02:21;;;;;;;;;;;;;;;;;;6153080;23;19908;-93
2023/09/28 07:04:47;;;;;;;;;;;;;;;;;;6154287;23;19912;-93
2023/09/28 07:07:17;;;;;;;;;;;;;;;;;;6153537;23;19909;-92
2023/09/28 07:09:43;;;;;;;;;;;;;;;;;;6152829;23;19955;-93
2023/09/28 07:12:13;;;;;;;;;;;;;;;;;;6153733;23;19909;-92
2023/09/28 07:14:38;;;;;;;;;;;;;;;;;;6127237;23;19908;-92
2023/09/28 07:17:05;;;;;;;;;;;;;;;;;;6128783;23;19915;-93
2023/09/28 07:19:32;;;;;;;;;;;;;;;;;;6126446;23;19947;-93
2023/09/28 07:22:04;;;;;;;;;;;;;;;;;;6126789;23;19908;-92
2023/09/28 07:24:33;;;;;;;;;;;;;;;;;;6128315;23;19939;-92
2023/09/28 07:26:59;;;;;;;;;;;;;;;;;;6128520;23;19930;-92
2023/09/28 07:29:25;;;;;;;;;;;;;;;;;;6127557;23;19909;-93
2023/09/28 07:31:51;;;;;;;;;;;;;;;;;;6129228;23;19905;-92
2023/09/28 07:34:17;;;;;;;;;;;;;;;;;;6126953;23;19908;-93
2023/09/28 07:36:45;;;;;;;;;;;;;;;;;;6126034;23;19911;-94
2023/09/28 07:39:11;;;;;;;;;;;;;;;;;;6128617;23;19904;-92
2023/09/28 07:41:39;;;;;;;;;;;;;;;;;;6127183;23;19915;-93
2023/09/28 07:44:04;;;;;;;;;;;;;;;;;;6127369;23;19904;-93
2023/09/28 07:46:31;;;;;;;;;;;;;;;;;;6128072;23;19905;-93
2023/09/28 07:48:57;;;;;;;;;;;;;;;;;;6127265;23;20422;-92
2023/09/28 07:51:29;;;;;;;;;;;;;;;;;;6126853;23;19908;-92
2023/09/28 07:53:55;;;;;;;;;;;;;;;;;;6124945;23;20243;-93
2023/09/28 07:56:21;;;;;;;;;;;;;;;;;;6125657;23;19912;-93
2023/09/28 07:58:47;;;;;;;;;;;;;;;;;;6127123;23;19912;-92
2023/09/28 08:01:15;;;;;;;;;;;;;;;;;;6126476;23;19916;-93
2023/09/28 08:03:40;;;;;;;;;;;;;;;;;;6126611;23;19935;-93
2023/09/28 08:06:09;;;;;;;;;;;;;;;;;;6127062;23;19904;-92
2023/09/28 08:08:35;;;;;;;;;;;;;;;;;;6125663;23;20272;-92
2023/09/28 08:11:07;;;;;;;;;;;;;;;;;;6127190;23;19908;-92
2023/09/28 08:13:34;;;;;;;;;;;;;;;;;;6139229;23;20262;-94
2023/09/28 08:16:00;;;;;;;;;;;;;;;;;;6152381;23;19909;-93
2023/09/28 08:18:26;;;;;;;;;;;;;;;;;;6150959;23;19920;-92
2023/09/28 08:20:52;;;;;;;;;;;;;;;;;;6151673;23;19909;-92
2023/09/28 08:23:18;;;;;;;;;;;;;;;;;;6150498;23;19908;-92
2023/09/28 08:25:44;;;;;;;;;;;;;;;;;;6151212;23;19936;-93
2023/09/28 08:28:10;;;;;;;;;;;;;;;;;;6149898;23;20314;-92
2023/09/28 08:30:36;;;;;;;;;;;;;;;;;;6151634;23;19905;-92
2023/09/28 08:33:02;;;;;;;;;;;;;;;;;;6150803;23;19915;-92
2023/09/28 08:35:28;;;;;;;;;;;;;;;;;;6150149;23;19914;-92
2023/09/28 08:37:54;;;;;;;;;;;;;;;;;;6150396;23;20327;-93
2023/09/28 08:40:20;;;;;;;;;;;;;;;;;;6151374;23;19931;-92
2023/09/28 08:42:46;;;;;;;;;;;;;;;;;;6150632;23;20402;-92
2023/09/28 08:45:12;;;;;;;;;;;;;;;;;;6151258;23;19908;-92
2023/09/28 08:47:38;;;;;;;;;;;;;;;;;;6151264;23;19948;-92
2023/09/28 08:50:04;;;;;;;;;;;;;;;;;;6151440;23;19905;-93
2023/09/28 08:52:30;;;;;;;;;;;;;;;;;;6151245;23;20251;-92
2023/09/28 08:54:57;;;;;;;;;;;;;;;;;;6149986;23;19915;-92
2023/09/28 08:57:23;;;;;;;;;;;;;;;;;;6151459;23;19911;-92
2023/09/28 08:59:51;;;;;;;;;;;;;;;;;;6150269;23;20429;-92
2023/09/28 09:02:17;;;;;;;;;;;;;;;;;;6151398;23;19915;-92
2023/09/28 09:04:45;;;;;;;;;;;;;;;;;;6150621;23;20165;-92
2023/09/28 09:07:11;;;;;;;;;;;;;;;;;;6150587;23;20387;-93
2023/09/28 09:09:40;;;;;;;;;;;;;;;;;;6153180;23;19936;-92
2023/09/28 09:12:06;;;;;;;;;;;;;;;;;;6150366;23;19939;-92
2023/09/28 09:14:32;;;;;;;;;;;;;;;;;;6150635;23;20339;-93
2023/09/28 09:16:58;;;;;;;;;;;;;;;;;;6150815;23;19936;-93
2023/09/28 09:19:24;;;;;;;;;;;;;;;;;;6151076;23;19968;-92
2023/09/28 09:21:51;;;;;;;;;;;;;;;;;;6149851;23;19904;-93
2023/09/28 09:24:20;;;;;;;;;;;;;;;;;;6150983;23;19905;-92
2023/09/28 09:26:46;;;;;;;;;;;;;;;;;;6150274;23;19920;-92
2023/09/28 09:29:12;;;;;;;;;;;;;;;;;;6152623;23;19916;-92
2023/09/28 09:31:39;;;;;;;;;;;;;;;;;;6150415;23;19908;-92
2023/09/28 09:34:05;;;;;;;;;;;;;;;;;;6150462;23;19908;-92
2023/09/28 09:36:31;;;;;;;;;;;;;;;;;;6149860;23;20350;-92
2023/09/28 09:38:58;;;;;;;;;;;;;;;;;;6151188;23;19904;-92
2023/09/28 09:41:24;;;;;;;;;;;;;;;;;;6150489;23;20431;-92
2023/09/28 09:43:51;;;;;;;;;;;;;;;;;;6150631;23;20224;-92
2023/09/28 09:46:17;;;;;;;;;;;;;;;;;;6150334;23;19963;-92
2023/09/28 09:48:43;;;;;;;;;;;;;;;;;;6151251;23;19909;-92
2023/09/28 09:51:10;;;;;;;;;;;;;;;;;;6149849;23;20398;-92
2023/09/28 09:53:36;;;;;;;;;;;;;;;;;;6151191;23;20044;-92
2023/09/28 09:56:04;;;;;;;;;;;;;;;;;;6150149;23;19909;-92
2023/09/28 09:58:37;;;;;;;;;;;;;;;;;;6151362;23;19908;-93
2023/09/28 10:01:04;;;;;;;;;;;;;;;;;;6150016;23;20359;-92
2023/09/28 10:03:30;;;;;;;;;;;;;;;;;;6151735;23;19904;-91
2023/09/28 10:05:57;;;;;;;;;;;;;;;;;;6149940;23;19905;-92
2023/09/28 10:08:23;;;;;;;;;;;;;;;;;;6150152;23;19916;-91
2023/09/28 10:10:49;;;;;;;;;;;;;;;;;;6150564;23;19912;-92
2023/09/28 10:13:15;;;;;;;;;;;;;;;;;;6150584;23;20241;-92
2023/09/28 10:15:41;;;;;;;;;;;;;;;;;;6150464;23;19916;-92
2023/09/28 10:18:07;;;;;;;;;;;;;;;;;;6150567;23;19908;-92
2023/09/28 10:20:33;;;;;;;;;;;;;;;;;;6151022;23;19904;-92
2023/09/28 10:22:58;;;;;;;;;;;;;;;;;;6149723;23;19912;-92
2023/09/28 10:25:25;;;;;;;;;;;;;;;;;;6151319;23;20088;-92
2023/09/28 10:27:51;;;;;;;;;;;;;;;;;;6151399;23;20349;-92
2023/09/28 10:30:18;;;;;;;;;;;;;;;;;;6150666;23;19936;-92
2023/09/28 10:32:44;;;;;;;;;;;;;;;;;;6151191;23;19917;-92
2023/09/28 10:35:10;;;;;;;;;;;;;;;;;;6150557;23;19959;-91
2023/09/28 10:37:37;;;;;;;;;;;;;;;;;;6149539;23;19936;-90
2023/09/28 10:40:03;;;;;;;;;;;;;;;;;;6151623;23;19908;-92
2023/09/28 10:42:30;;;;;;;;;;;;;;;;;;6152798;23;19916;-93
2023/09/28 10:44:56;;;;;;;;;;;;;;;;;;6152112;23;19914;-93
2023/09/28 10:47:22;;;;;;;;;;;;;;;;;;6153228;23;19936;-92
2023/09/28 10:49:53;;;;;;;;;;;;;;;;;;6152311;23;19905;-92
2023/09/28 10:52:20;;;;;;;;;;;;;;;;;;6152748;23;19912;-92
2023/09/28 10:54:46;;;;;;;;;;;;;;;;;;6151737;23;19932;-92
2023/09/28 10:57:12;;;;;;;;;;;;;;;;;;6152722;23;20251;-92
2023/09/28 10:59:41;;;;;;;;;;;;;;;;;;6151443;23;19913;-92
2023/09/28 11:02:06;;;;;;;;;;;;;;;;;;6151914;23;19905;-93
2023/09/28 11:04:32;;;;;;;;;;;;;;;;;;6150574;23;20262;-92
2023/09/28 11:07:00;;;;;;;;;;;;;;;;;;6152195;23;19983;-92
2023/09/28 11:09:27;;;;;;;;;;;;;;;;;;6150968;23;19919;-92
2023/09/28 11:11:53;;;;;;;;;;;;;;;;;;6151602;23;20227;-92
2023/09/28 11:14:20;;;;;;;;;;;;;;;;;;6151266;23;19921;-92
2023/09/28 11:16:49;;;;;;;;;;;;;;;;;;6152317;23;19909;-93
2023/09/28 11:19:15;;;;;;;;;;;;;;;;;;6151861;23;19977;-92
2023/09/28 11:21:41;;;;;;;;;;;;;;;;;;6150299;23;19909;-92
2023/09/28 11:24:07;;;;;;;;;;;;;;;;;;6151557;23;19911;-92
2023/09/28 11:26:32;;;;;;;;;;;;;;;;;;6151186;23;19916;-92
2023/09/28 11:28:59;;;;;;;;;;;;;;;;;;6152335;23;19909;-92
2023/09/28 11:31:25;;;;;;;;;;;;;;;;;;6151659;23;19916;-91
2023/09/28 11:33:52;;;;;;;;;;;;;;;;;;6152056;23;19915;-92
2023/09/28 11:36:18;;;;;;;;;;;;;;;;;;6150139;23;19987;-92
2023/09/28 11:38:44;;;;;;;;;;;;;;;;;;6154377;23;19912;-94
2023/09/28 11:41:10;;;;;;;;;;;;;;;;;;6153227;23;19904;-93
2023/09/28 11:43:37;;;;;;;;;;;;;;;;;;6154096;23;19912;-93
2023/09/28 11:46:03;;;;;;;;;;;;;;;;;;6153651;23;19905;-93
2023/09/28 11:48:29;;;;;;;;;;;;;;;;;;6150379;23;20357;-92
2023/09/28 11:50:56;;;;;;;;;;;;;;;;;;6151946;23;20161;-93
2023/09/28 11:53:22;;;;;;;;;;;;;;;;;;6150830;23;20259;-92
2023/09/28 11:55:49;;;;;;;;;;;;;;;;;;6152231;23;19912;-92
2023/09/28 11:58:15;;;;;;;;;;;;;;;;;;6151987;23;19994;-92
2023/09/28 12:00:41;;;;;;;;;;;;;;;;;;6151349;23;19928;-93
2023/09/28 12:03:07;;;;;;;;;;;;;;;;;;6151605;23;19912;-92
2023/09/28 12:05:33;;;;;;;;;;;;;;;;;;6151320;23;19909;-92
2023/09/28 12:07:59;;;;;;;;;;;;;;;;;;6150776;23;19908;-92
2023/09/28 12:10:25;;;;;;;;;;;;;;;;;;6150747;23;20255;-92
2023/09/28 12:12:51;;;;;;;;;;;;;;;;;;6151587;23;19904;-92
2023/09/28 12:15:17;;;;;;;;;;;;;;;;;;6152291;23;19916;-92
2023/09/28 12:17:43;;;;;;;;;;;;;;;;;;6151546;23;19915;-92
2023/09/28 12:20:09;;;;;;;;;;;;;;;;;;6151743;23;20247;-93
2023/09/28 12:22:35;;;;;;;;;;;;;;;;;;6151161;23;19967;-93
2023/09/28 12:25:01;;;;;;;;;;;;;;;;;;6150476;23;20326;-92
2023/09/28 12:27:27;;;;;;;;;;;;;;;;;;6151579;23;19908;-94
2023/09/28 12:29:53;;;;;;;;;;;;;;;;;;6151233;23;19912;-94
2023/09/28 12:32:19;;;;;;;;;;;;;;;;;;6153578;23;20437;-94
2023/09/28 12:34:45;;;;;;;;;;;;;;;;;;6152282;23;19906;-93
2023/09/28 12:37:11;;;;;;;;;;;;;;;;;;6152352;23;20322;-93
2023/09/28 12:39:38;;;;;;;;;;;;;;;;;;6151203;23;19935;-93
2023/09/28 12:42:03;;;;;;;;;;;;;;;;;;6152897;23;19904;-94
2023/09/28 12:44:30;;;;;;;;;;;;;;;;;;6152601;23;19935;-94
2023/09/28 12:46:56;;;;;;;;;;;;;;;;;;6152046;23;19940;-94
2023/09/28 12:49:22;;;;;;;;;;;;;;;;;;6152955;23;19916;-95
2023/09/28 12:51:48;;;;;;;;;;;;;;;;;;6153257;23;20017;-95
2023/09/28 12:54:14;;;;;;;;;;;;;;;;;;6154733;23;19908;-94
2023/09/28 12:56:40;;;;;;;;;;;;;;;;;;6153683;23;19919;-93
2023/09/28 12:59:06;;;;;;;;;;;;;;;;;;6151349;23;19909;-92
2023/09/28 13:01:32;;;;;;;;;;;;;;;;;;6151606;23;19924;-92
2023/09/28 13:03:59;;;;;;;;;;;;;;;;;;6150958;23;19908;-92
2023/09/28 13:06:25;;;;;;;;;;;;;;;;;;6151600;23;19973;-92
2023/09/28 13:08:51;;;;;;;;;;;;;;;;;;6151868;23;19944;-93
2023/09/28 13:11:18;;;;;;;;;;;;;;;;;;6152986;23;19955;-93
2023/09/28 13:13:44;;;;;;;;;;;;;;;;;;6151698;23;19928;-94
2023/09/28 13:16:13;;;;;;;;;;;;;;;;;;6153590;23;20448;-93
2023/09/28 13:18:39;;;;;;;;;;;;;;;;;;6153375;23;19904;-94
2023/09/28 13:21:05;;;;;;;;;;;;;;;;;;6153012;23;19905;-94
2023/09/28 13:23:31;;;;;;;;;;;;;;;;;;6151103;23;19908;-93
2023/09/28 13:25:57;;;;;;;;;;;;;;;;;;6153076;23;20036;-94
2023/09/28 13:28:23;;;;;;;;;;;;;;;;;;6153240;23;19956;-94
2023/09/28 13:30:49;;;;;;;;;;;;;;;;;;6153775;23;20326;-93
2023/09/28 13:33:15;;;;;;;;;;;;;;;;;;6153013;23;20520;-94
2023/09/28 13:35:41;;;;;;;;;;;;;;;;;;6151838;23;19909;-93
2023/09/28 13:38:08;;;;;;;;;;;;;;;;;;6151532;23;20239;-92
2023/09/28 13:40:34;;;;;;;;;;;;;;;;;;6151328;23;19908;-93
2023/09/28 13:43:01;;;;;;;;;;;;;;;;;;6150547;23;19905;-92
2023/09/28 13:45:27;;;;;;;;;;;;;;;;;;6151532;23;19904;-92
2023/09/28 13:47:53;;;;;;;;;;;;;;;;;;6150907;23;19912;-92
2023/09/28 13:50:19;;;;;;;;;;;;;;;;;;6150615;23;19908;-92
2023/09/28 13:52:49;;;;;;;;;;;;;;;;;;6149577;23;19904;-93
2023/09/28 13:55:19;;;;;;;;;;;;;;;;;;6150930;23;19955;-93
2023/09/28 13:57:47;;;;;;;;;;;;;;;;;;6149995;23;20355;-92
2023/09/28 14:00:31;;;;;;;;;;;;;;;;;;6151913;23;19912;-92
2023/09/28 14:02:57;;;;;;;;;;;;;;;;;;6151285;23;20238;-93
2023/09/28 14:05:22;;;;;;;;;;;;;;;;;;6150996;23;19908;-92
2023/09/28 14:07:49;;;;;;;;;;;;;;;;;;6149980;23;19908;-91
2023/09/28 14:10:15;;;;;;;;;;;;;;;;;;6150332;23;20243;-92
2023/09/28 14:12:51;;;;;;;;;;;;;;;;;;6151142;23;19908;-92
2023/09/28 14:15:18;;;;;;;;;;;;;;;;;;6153651;23;19948;-92
2023/09/28 14:17:44;;;;;;;;;;;;;;;;;;6153279;23;19909;-92
2023/09/28 14:20:15;;;;;;;;;;;;;;;;;;6152411;23;19936;-92
2023/09/28 14:22:44;;;;;;;;;;;;;;;;;;6151878;23;19971;-92
2023/09/28 14:25:11;;;;;;;;;;;;;;;;;;6152036;23;19908;-92
2023/09/28 14:27:37;;;;;;;;;;;;;;;;;;6153511;23;20375;-92
2023/09/28 14:30:03;;;;;;;;;;;;;;;;;;6151219;23;19948;-92
2023/09/28 14:32:29;;;;;;;;;;;;;;;;;;6153185;23;19915;-93
2023/09/28 14:34:55;;;;;;;;;;;;;;;;;;6152687;23;20361;-92
2023/09/28 14:37:21;;;;;;;;;;;;;;;;;;6152180;23;19904;-92
2023/09/28 14:39:47;;;;;;;;;;;;;;;;;;6151911;23;20363;-93
2023/09/28 14:42:13;;;;;;;;;;;;;;;;;;6152476;23;19984;-92
2023/09/28 14:44:39;;;;;;;;;;;;;;;;;;6152206;23;19931;-92
2023/09/28 14:47:05;;;;;;;;;;;;;;;;;;6152181;23;19909;-93
2023/09/28 14:49:31;;;;;;;;;;;;;;;;;;6153378;23;19917;-91
2023/09/28 14:51:57;;;;;;;;;;;;;;;;;;6151593;23;20550;-92
2023/09/28 14:54:23;;;;;;;;;;;;;;;;;;6154475;23;19935;-93
2023/09/28 14:56:49;;;;;;;;;;;;;;;;;;6152687;23;19959;-92
2023/09/28 14:59:15;;;;;;;;;;;;;;;;;;6153124;23;19963;-92
2023/09/28 15:01:40;;;;;;;;;;;;;;;;;;6152456;23;19905;-92
2023/09/28 15:04:07;;;;;;;;;;;;;;;;;;6152087;23;19908;-92
2023/09/28 15:06:33;;;;;;;;;;;;;;;;;;6151702;23;19915;-92
2023/09/28 15:08:58;;;;;;;;;;;;;;;;;;6151474;23;19953;-92
2023/09/28 15:11:24;;;;;;;;;;;;;;;;;;6152657;23;19931;-92
2023/09/28 15:13:50;;;;;;;;;;;;;;;;;;6152112;23;19917;-92
2023/09/28 15:16:16;;;;;;;;;;;;;;;;;;6150958;23;19912;-92
2023/09/28 15:18:42;;;;;;;;;;;;;;;;;;6152043;23;19936;-91
2023/09/28 15:21:10;;;;;;;;;;;;;;;;;;6151883;23;19912;-92
2023/09/28 15:23:36;;;;;;;;;;;;;;;;;;6151676;23;20243;-93
2023/09/28 15:26:02;;;;;;;;;;;;;;;;;;6152514;23;20434;-92
2023/09/28 15:28:28;;;;;;;;;;;;;;;;;;6151905;23;19947;-91
2023/09/28 15:30:56;;;;;;;;;;;;;;;;;;6153118;23;19947;-93
2023/09/28 15:33:21;;;;;;;;;;;;;;;;;;6152582;23;19963;-92
2023/09/28 15:35:47;;;;;;;;;;;;;;;;;;6152004;23;20478;-92
2023/09/28 15:38:13;;;;;;;;;;;;;;;;;;6151634;23;19983;-93
2023/09/28 15:40:40;;;;;;;;;;;;;;;;;;6152046;23;19905;-92
2023/09/28 15:43:07;;;;;;;;;;;;;;;;;;6152643;23;19905;-92
2023/09/28 15:45:33;;;;;;;;;;;;;;;;;;6152802;23;19909;-92
2023/09/28 15:47:59;;;;;;;;;;;;;;;;;;6152290;23;19963;-92
2023/09/28 15:50:25;;;;;;;;;;;;;;;;;;6152270;23;20335;-92
2023/09/28 15:52:51;;;;;;;;;;;;;;;;;;6150481;23;19976;-92
2023/09/28 15:55:17;;;;;;;;;;;;;;;;;;6152304;23;19963;-92
2023/09/28 15:57:43;;;;;;;;;;;;;;;;;;6152851;23;19908;-92
2023/09/28 16:00:11;;;;;;;;;;;;;;;;;;6152184;23;19909;-92
2023/09/28 16:02:37;;;;;;;;;;;;;;;;;;6151794;23;20271;-92
2023/09/28 16:05:03;;;;;;;;;;;;;;;;;;6151534;23;19927;-92
2023/09/28 16:07:29;;;;;;;;;;;;;;;;;;6149357;23;19908;-92
2023/09/28 16:09:56;;;;;;;;;;;;;;;;;;6153325;23;19915;-93
2023/09/28 16:12:22;;;;;;;;;;;;;;;;;;6151085;23;19923;-92
2023/09/28 16:14:48;;;;;;;;;;;;;;;;;;6154287;23;19948;-92
2023/09/28 16:17:14;;;;;;;;;;;;;;;;;;6126256;23;19909;-92
2023/09/28 16:19:40;;;;;;;;;;;;;;;;;;6128145;23;20311;-92
2023/09/28 16:22:07;;;;;;;;;;;;;;;;;;6125980;23;20413;-92
2023/09/28 16:24:33;;;;;;;;;;;;;;;;;;6128388;23;19967;-92
2023/09/28 16:26:59;;;;;;;;;;;;;;;;;;6126268;23;20323;-92
2023/09/28 16:29:25;;;;;;;;;;;;;;;;;;6127327;23;19909;-93
2023/09/28 16:31:51;;;;;;;;;;;;;;;;;;6128052;23;19905;-92
2023/09/28 16:34:16;;;;;;;;;;;;;;;;;;6152767;23;19905;-93
2023/09/28 16:36:42;;;;;;;;;;;;;;;;;;6126948;23;19919;-92
2023/09/28 16:39:09;;;;;;;;;;;;;;;;;;6126443;23;19909;-92
2023/09/28 16:41:35;;;;;;;;;;;;;;;;;;6128047;23;20012;-92
2023/09/28 16:44:00;;;;;;;;;;;;;;;;;;6127560;23;20088;-92